RUK99B EGCC-EIKY
Flight info
| Callsign | RUK99B |
|---|---|
| Flight time | N/A |
| Altitude | 38000 |
| Route | EKLAD Y53 WAL L10 PENIL M144 BAGSO DCT KER |
| Aircraft | B738/M-SDE3FGILRWY/SB1 |
Departure
| Time | 2026-05-07 17:45 |
|---|---|
| Airport | Manchester Airport (EGCC) |
Arrival
| Time | N/A |
|---|---|
| Airport | Kerry Airport (EIKY) |
| Time | Latitude | Longitude | Altitude | Speed | Heading |
|---|---|---|---|---|---|
| 2026-05-07 17:15 | 53.36088 | -2.26793 | 254 ft | 0 kts | 313° |
| 2026-05-07 17:36 | 53.36075 | -2.26770 | 254 ft | 4 kts | 313° |
| 2026-05-07 17:36 | 53.36060 | -2.26744 | 254 ft | 4 kts | 299° |
| 2026-05-07 17:36 | 53.36055 | -2.26704 | 254 ft | 4 kts | 255° |
| 2026-05-07 17:36 | 53.36064 | -2.26668 | 254 ft | 4 kts | 240° |
| 2026-05-07 17:37 | 53.36072 | -2.26646 | 254 ft | 0 kts | 240° |
| 2026-05-07 17:39 | 53.36067 | -2.26659 | 254 ft | 4 kts | 240° |
| 2026-05-07 17:40 | 53.36047 | -2.26706 | 254 ft | 5 kts | 231° |
| 2026-05-07 17:40 | 53.36018 | -2.26746 | 254 ft | 6 kts | 201° |
| 2026-05-07 17:40 | 53.35979 | -2.26733 | 255 ft | 7 kts | 156° |
| 2026-05-07 17:40 | 53.35930 | -2.26707 | 255 ft | 8 kts | 168° |
| 2026-05-07 17:41 | 53.35877 | -2.26696 | 262 ft | 8 kts | 172° |
| 2026-05-07 17:41 | 53.35819 | -2.26680 | 268 ft | 9 kts | 170° |
| 2026-05-07 17:41 | 53.35731 | -2.26653 | 268 ft | 16 kts | 170° |
| 2026-05-07 17:41 | 53.35623 | -2.26623 | 266 ft | 15 kts | 176° |
| 2026-05-07 17:42 | 53.35525 | -2.26714 | 258 ft | 19 kts | 232° |
| 2026-05-07 17:42 | 53.35446 | -2.26883 | 252 ft | 20 kts | 232° |
| 2026-05-07 17:42 | 53.35355 | -2.27070 | 245 ft | 19 kts | 231° |
| 2026-05-07 17:42 | 53.35282 | -2.27198 | 239 ft | 14 kts | 208° |
| 2026-05-07 17:43 | 53.35174 | -2.27243 | 230 ft | 18 kts | 191° |
| 2026-05-07 17:43 | 53.35055 | -2.27281 | 225 ft | 7 kts | 191° |
| 2026-05-07 17:43 | 53.35019 | -2.27304 | 226 ft | 6 kts | 216° |
| 2026-05-07 17:43 | 53.34992 | -2.27356 | 224 ft | 6 kts | 231° |
| 2026-05-07 17:44 | 53.34927 | -2.27492 | 223 ft | 39 kts | 231° |
| 2026-05-07 17:44 | 53.34604 | -2.28156 | 227 ft | 105 kts | 231° |
| 2026-05-07 17:44 | 53.34024 | -2.29353 | 234 ft | 158 kts | 230° |
| 2026-05-07 17:44 | 53.33294 | -2.30882 | 689 ft | 168 kts | 229° |
| 2026-05-07 17:45 | 53.32586 | -2.32389 | 1588 ft | 163 kts | 230° |
| 2026-05-07 17:45 | 53.31995 | -2.34117 | 2041 ft | 185 kts | 250° |
| 2026-05-07 17:45 | 53.31988 | -2.36432 | 2294 ft | 214 kts | 277° |
| 2026-05-07 17:45 | 53.32334 | -2.38952 | 2554 ft | 232 kts | 279° |
| 2026-05-07 17:46 | 53.32667 | -2.41696 | 2783 ft | 250 kts | 270° |
| 2026-05-07 17:46 | 53.32386 | -2.44563 | 3296 ft | 253 kts | 249° |
| 2026-05-07 17:46 | 53.31873 | -2.47382 | 4052 ft | 254 kts | 250° |
| 2026-05-07 17:46 | 53.31345 | -2.50226 | 4763 ft | 258 kts | 250° |
| 2026-05-07 17:47 | 53.30814 | -2.53099 | 5525 ft | 259 kts | 250° |
| 2026-05-07 17:47 | 53.30283 | -2.55974 | 6339 ft | 259 kts | 251° |
| 2026-05-07 17:47 | 53.29752 | -2.58855 | 7131 ft | 260 kts | 250° |
| 2026-05-07 17:47 | 53.29214 | -2.61774 | 7816 ft | 265 kts | 250° |
| 2026-05-07 17:48 | 53.28670 | -2.64718 | 8598 ft | 266 kts | 250° |
| 2026-05-07 17:48 | 53.28119 | -2.67698 | 9354 ft | 270 kts | 250° |
| 2026-05-07 17:48 | 53.27565 | -2.70709 | 10123 ft | 272 kts | 250° |